sensor_id;sensor_type;location;lat;lon;timestamp;pressure;altitude;pressure_sealevel;temperature;humidity
3590;BME280;1809;48.470;9.226;2022-09-24T00:00:30;96590.34;;;10.72;100.00
3590;BME280;1809;48.470;9.226;2022-09-24T00:02:56;96588.47;;;10.72;100.00
3590;BME280;1809;48.470;9.226;2022-09-24T00:05:21;96589.13;;;10.78;100.00
3590;BME280;1809;48.470;9.226;2022-09-24T00:07:46;96584.59;;;10.78;100.00
3590;BME280;1809;48.470;9.226;2022-09-24T00:10:12;96581.81;;;10.84;100.00
3590;BME280;1809;48.470;9.226;2022-09-24T00:12:37;96576.44;;;10.84;100.00
3590;BME280;1809;48.470;9.226;2022-09-24T00:15:03;96562.47;;;10.87;100.00
3590;BME280;1809;48.470;9.226;2022-09-24T00:17:29;96568.34;;;10.89;100.00
3590;BME280;1809;48.470;9.226;2022-09-24T00:19:54;96571.91;;;10.98;100.00
3590;BME280;1809;48.470;9.226;2022-09-24T00:22:19;96569.09;;;11.03;100.00
3590;BME280;1809;48.470;9.226;2022-09-24T00:24:45;96571.50;;;11.04;100.00
3590;BME280;1809;48.470;9.226;2022-09-24T00:27:29;96565.94;;;11.01;100.00
3590;BME280;1809;48.470;9.226;2022-09-24T00:29:54;96563.38;;;10.96;100.00
3590;BME280;1809;48.470;9.226;2022-09-24T00:32:19;96558.63;;;10.93;100.00
3590;BME280;1809;48.470;9.226;2022-09-24T00:34:46;96560.19;;;10.94;100.00
3590;BME280;1809;48.470;9.226;2022-09-24T00:37:12;96553.28;;;10.93;100.00
3590;BME280;1809;48.470;9.226;2022-09-24T00:39:37;96555.44;;;10.91;100.00
3590;BME280;1809;48.470;9.226;2022-09-24T00:42:03;96542.38;;;10.89;100.00
3590;BME280;1809;48.470;9.226;2022-09-24T00:49:47;96544.94;;;10.80;100.00
3590;BME280;1809;48.470;9.226;2022-09-24T00:52:13;96548.13;;;10.83;100.00
3590;BME280;1809;48.470;9.226;2022-09-24T00:54:39;96552.09;;;10.85;100.00
3590;BME280;1809;48.470;9.226;2022-09-24T00:57:08;96542.66;;;10.88;100.00
3590;BME280;1809;48.470;9.226;2022-09-24T00:59:34;96540.00;;;10.88;100.00
3590;BME280;1809;48.470;9.226;2022-09-24T01:02:00;96542.88;;;10.91;100.00
3590;BME280;1809;48.470;9.226;2022-09-24T01:04:27;96524.47;;;10.90;100.00
3590;BME280;1809;48.470;9.226;2022-09-24T01:06:53;96526.53;;;10.93;100.00
3590;BME280;1809;48.470;9.226;2022-09-24T01:09:20;96521.19;;;10.93;100.00
3590;BME280;1809;48.470;9.226;2022-09-24T01:12:07;96506.09;;;10.97;100.00
3590;BME280;1809;48.470;9.226;2022-09-24T01:25:28;96500.19;;;10.86;100.00
3590;BME280;1809;48.470;9.226;2022-09-24T01:30:46;96491.44;;;10.80;100.00
3590;BME280;1809;48.470;9.226;2022-09-24T01:33:18;96476.00;;;10.77;100.00
3590;BME280;1809;48.470;9.226;2022-09-24T01:35:49;96483.44;;;10.80;100.00
3590;BME280;1809;48.470;9.226;2022-09-24T01:38:20;96475.25;;;10.77;100.00
3590;BME280;1809;48.470;9.226;2022-09-24T01:40:49;96473.44;;;10.72;100.00
3590;BME280;1809;48.470;9.226;2022-09-24T01:43:19;96472.47;;;10.68;100.00
3590;BME280;1809;48.470;9.226;2022-09-24T01:45:46;96474.03;;;10.69;100.00
3590;BME280;1809;48.470;9.226;2022-09-24T01:48:12;96468.50;;;10.79;100.00
3590;BME280;1809;48.470;9.226;2022-09-24T01:50:46;96465.31;;;10.77;100.00
3590;BME280;1809;48.470;9.226;2022-09-24T01:53:49;96471.53;;;10.87;100.00
3590;BME280;1809;48.470;9.226;2022-09-24T01:56:26;96474.09;;;10.92;100.00
3590;BME280;1809;48.470;9.226;2022-09-24T01:59:21;96472.50;;;10.91;100.00
3590;BME280;1809;48.470;9.226;2022-09-24T02:01:50;96474.09;;;10.92;100.00
3590;BME280;1809;48.470;9.226;2022-09-24T02:04:19;96480.53;;;10.91;100.00
3590;BME280;1809;48.470;9.226;2022-09-24T02:06:53;96466.06;;;10.92;100.00
3590;BME280;1809;48.470;9.226;2022-09-24T02:09:36;96468.44;;;10.93;100.00
3590;BME280;1809;48.470;9.226;2022-09-24T02:12:10;96470.41;;;11.01;100.00
3590;BME280;1809;48.470;9.226;2022-09-24T02:14:40;96470.69;;;11.00;100.00
3590;BME280;1809;48.470;9.226;2022-09-24T02:17:08;96473.88;;;11.02;100.00
3590;BME280;1809;48.470;9.226;2022-09-24T02:19:36;96472.78;;;11.03;100.00
3590;BME280;1809;48.470;9.226;2022-09-24T02:22:05;96479.41;;;11.05;100.00
3590;BME280;1809;48.470;9.226;2022-09-24T02:24:39;96472.34;;;11.09;100.00
3590;BME280;1809;48.470;9.226;2022-09-24T02:27:08;96466.72;;;11.11;100.00
3590;BME280;1809;48.470;9.226;2022-09-24T02:29:33;96454.28;;;11.15;100.00
3590;BME280;1809;48.470;9.226;2022-09-24T02:32:00;96442.97;;;11.18;100.00
3590;BME280;1809;48.470;9.226;2022-09-24T02:34:37;96448.34;;;11.18;100.00
3590;BME280;1809;48.470;9.226;2022-09-24T02:37:10;96446.78;;;11.17;100.00
3590;BME280;1809;48.470;9.226;2022-09-24T02:39:36;96442.03;;;11.14;100.00
3590;BME280;1809;48.470;9.226;2022-09-24T02:42:02;96453.69;;;11.18;100.00
3590;BME280;1809;48.470;9.226;2022-09-24T02:44:30;96459.34;;;11.16;100.00
3590;BME280;1809;48.470;9.226;2022-09-24T02:46:55;96453.69;;;11.18;100.00
3590;BME280;1809;48.470;9.226;2022-09-24T02:49:21;96457.94;;;11.19;100.00
3590;BME280;1809;48.470;9.226;2022-09-24T02:51:46;96459.03;;;11.18;100.00
3590;BME280;1809;48.470;9.226;2022-09-24T02:54:12;96456.25;;;11.23;100.00
3590;BME280;1809;48.470;9.226;2022-09-24T02:56:38;96451.88;;;11.27;100.00
3590;BME280;1809;48.470;9.226;2022-09-24T02:59:04;96448.28;;;11.31;100.00
3590;BME280;1809;48.470;9.226;2022-09-24T03:01:30;96447.88;;;11.38;100.00
3590;BME280;1809;48.470;9.226;2022-09-24T03:03:56;96434.34;;;11.43;100.00
3590;BME280;1809;48.470;9.226;2022-09-24T03:06:22;96433.19;;;11.36;100.00
3590;BME280;1809;48.470;9.226;2022-09-24T03:08:49;96430.81;;;11.34;100.00
3590;BME280;1809;48.470;9.226;2022-09-24T03:11:16;96428.13;;;11.34;100.00
3590;BME280;1809;48.470;9.226;2022-09-24T03:13:41;96429.25;;;11.33;100.00
3590;BME280;1809;48.470;9.226;2022-09-24T03:16:07;96427.19;;;11.30;100.00
3590;BME280;1809;48.470;9.226;2022-09-24T03:18:33;96430.53;;;11.36;100.00
3590;BME280;1809;48.470;9.226;2022-09-24T03:21:01;96419.63;;;11.32;100.00
3590;BME280;1809;48.470;9.226;2022-09-24T03:23:27;96415.06;;;11.32;100.00
3590;BME280;1809;48.470;9.226;2022-09-24T03:25:53;96414.75;;;11.34;100.00
3590;BME280;1809;48.470;9.226;2022-09-24T03:28:19;96423.75;;;11.38;100.00
3590;BME280;1809;48.470;9.226;2022-09-24T03:30:45;96427.53;;;11.37;100.00
3590;BME280;1809;48.470;9.226;2022-09-24T03:35:58;96436.69;;;11.36;100.00
3590;BME280;1809;48.470;9.226;2022-09-24T03:38:23;96423.53;;;11.26;100.00
3590;BME280;1809;48.470;9.226;2022-09-24T03:40:49;96426.69;;;11.28;100.00
3590;BME280;1809;48.470;9.226;2022-09-24T03:43:14;96418.66;;;11.28;100.00
3590;BME280;1809;48.470;9.226;2022-09-24T03:45:39;96422.56;;;11.22;100.00
3590;BME280;1809;48.470;9.226;2022-09-24T03:48:05;96414.03;;;11.20;100.00
3590;BME280;1809;48.470;9.226;2022-09-24T03:50:31;96414.34;;;11.18;100.00
3590;BME280;1809;48.470;9.226;2022-09-24T03:52:56;96416.41;;;11.21;100.00
3590;BME280;1809;48.470;9.226;2022-09-24T03:55:22;96425.22;;;11.22;100.00
3590;BME280;1809;48.470;9.226;2022-09-24T03:57:47;96419.88;;;11.22;100.00
3590;BME280;1809;48.470;9.226;2022-09-24T04:00:13;96421.47;;;11.23;100.00
3590;BME280;1809;48.470;9.226;2022-09-24T04:02:38;96416.41;;;11.21;100.00
3590;BME280;1809;48.470;9.226;2022-09-24T04:05:05;96425.22;;;11.22;100.00
3590;BME280;1809;48.470;9.226;2022-09-24T04:07:30;96422.56;;;11.22;100.00
3590;BME280;1809;48.470;9.226;2022-09-24T04:09:56;96421.94;;;11.25;100.00
3590;BME280;1809;48.470;9.226;2022-09-24T04:12:21;96415.38;;;11.31;100.00
3590;BME280;1809;48.470;9.226;2022-09-24T04:14:47;96415.56;;;11.34;100.00
3590;BME280;1809;48.470;9.226;2022-09-24T04:17:13;96404.66;;;11.31;100.00
3590;BME280;1809;48.470;9.226;2022-09-24T04:19:39;96404.66;;;11.31;100.00
3590;BME280;1809;48.470;9.226;2022-09-24T04:22:04;96411.19;;;11.39;100.00
3590;BME280;1809;48.470;9.226;2022-09-24T04:24:29;96409.72;;;11.32;100.00
3590;BME280;1809;48.470;9.226;2022-09-24T04:26:55;96412.69;;;11.31;100.00
3590;BME280;1809;48.470;9.226;2022-09-24T04:29:20;96401.97;;;11.31;100.00
3590;BME280;1809;48.470;9.226;2022-09-24T04:31:45;96406.84;;;11.29;100.00
3590;BME280;1809;48.470;9.226;2022-09-24T04:34:11;96398.22;;;11.32;100.00
3590;BME280;1809;48.470;9.226;2022-09-24T04:36:36;96402.47;;;11.33;100.00
3590;BME280;1809;48.470;9.226;2022-09-24T04:39:02;96399.31;;;11.31;100.00
3590;BME280;1809;48.470;9.226;2022-09-24T04:41:27;96402.31;;;11.29;100.00
3590;BME280;1809;48.470;9.226;2022-09-24T04:43:53;96403.09;;;11.30;100.00
3590;BME280;1809;48.470;9.226;2022-09-24T04:46:18;96404.66;;;11.31;100.00
3590;BME280;1809;48.470;9.226;2022-09-24T04:48:43;96393.94;;;11.31;100.00
3590;BME280;1809;48.470;9.226;2022-09-24T04:51:09;96406.72;;;11.34;100.00
3590;BME280;1809;48.470;9.226;2022-09-24T04:53:35;96402.34;;;11.38;100.00
3590;BME280;1809;48.470;9.226;2022-09-24T04:56:02;96415.13;;;11.41;100.00
3590;BME280;1809;48.470;9.226;2022-09-24T04:58:29;96409.75;;;11.41;100.00
3590;BME280;1809;48.470;9.226;2022-09-24T05:00:54;96403.78;;;11.44;100.00
3590;BME280;1809;48.470;9.226;2022-09-24T05:03:19;96412.31;;;11.46;100.00
3590;BME280;1809;48.470;9.226;2022-09-24T05:05:45;96419.28;;;11.56;100.00
3590;BME280;1809;48.470;9.226;2022-09-24T05:08:11;96417.13;;;11.58;100.00
3590;BME280;1809;48.470;9.226;2022-09-24T05:10:37;96408.91;;;11.54;100.00
3590;BME280;1809;48.470;9.226;2022-09-24T05:13:02;96420.09;;;11.56;100.00
3590;BME280;1809;48.470;9.226;2022-09-24T05:15:28;96411.75;;;11.58;100.00
3590;BME280;1809;48.470;9.226;2022-09-24T05:17:53;96417.78;;;11.63;100.00
3590;BME280;1809;48.470;9.226;2022-09-24T05:20:18;96417.78;;;11.63;100.00
3590;BME280;1809;48.470;9.226;2022-09-24T05:22:45;96417.78;;;11.63;100.00
3590;BME280;1809;48.470;9.226;2022-09-24T05:25:12;96420.44;;;11.63;100.00
3590;BME280;1809;48.470;9.226;2022-09-24T05:27:46;96412.41;;;11.63;100.00
3590;BME280;1809;48.470;9.226;2022-09-24T05:30:12;96419.84;;;11.66;100.00
3590;BME280;1809;48.470;9.226;2022-09-24T05:32:38;96421.97;;;11.78;100.00
3590;BME280;1809;48.470;9.226;2022-09-24T05:35:04;96424.34;;;11.79;100.00
3590;BME280;1809;48.470;9.226;2022-09-24T05:37:30;96426.06;;;11.75;100.00
3590;BME280;1809;48.470;9.226;2022-09-24T05:39:55;96426.19;;;11.70;100.00
3590;BME280;1809;48.470;9.226;2022-09-24T05:42:21;96431.16;;;11.63;100.00
3590;BME280;1809;48.470;9.226;2022-09-24T05:44:47;96432.56;;;11.61;100.00
3590;BME280;1809;48.470;9.226;2022-09-24T05:47:12;96441.38;;;11.61;100.00
3590;BME280;1809;48.470;9.226;2022-09-24T05:49:37;96433.22;;;11.66;100.00
3590;BME280;1809;48.470;9.226;2022-09-24T05:52:03;96437.19;;;11.69;100.00
3590;BME280;1809;48.470;9.226;2022-09-24T05:54:29;96431.56;;;11.70;100.00
3590;BME280;1809;48.470;9.226;2022-09-24T05:56:54;96442.13;;;11.75;100.00
3590;BME280;1809;48.470;9.226;2022-09-24T05:59:19;96437.56;;;11.76;100.00
3590;BME280;1809;48.470;9.226;2022-09-24T06:01:45;96439.31;;;11.80;100.00
3590;BME280;1809;48.470;9.226;2022-09-24T06:04:10;96435.25;;;11.83;100.00
3590;BME280;1809;48.470;9.226;2022-09-24T06:06:38;96433.22;;;11.89;100.00
3590;BME280;1809;48.470;9.226;2022-09-24T06:09:04;96433.69;;;11.91;100.00
3590;BME280;1809;48.470;9.226;2022-09-24T06:11:31;96433.41;;;11.92;100.00
3590;BME280;1809;48.470;9.226;2022-09-24T06:14:00;96431.03;;;11.99;100.00
3590;BME280;1809;48.470;9.226;2022-09-24T06:16:31;96435.00;;;12.02;100.00
3590;BME280;1809;48.470;9.226;2022-09-24T06:18:56;96438.50;;;12.11;100.00
3590;BME280;1809;48.470;9.226;2022-09-24T06:21:22;96431.28;;;12.20;100.00
3590;BME280;1809;48.470;9.226;2022-09-24T06:23:47;96433.66;;;12.30;100.00
3590;BME280;1809;48.470;9.226;2022-09-24T06:26:13;96441.94;;;12.42;100.00
3590;BME280;1809;48.470;9.226;2022-09-24T06:28:39;96444.28;;;12.52;100.00
3590;BME280;1809;48.470;9.226;2022-09-24T06:31:05;96449.84;;;12.56;100.00
3590;BME280;1809;48.470;9.226;2022-09-24T06:33:31;96446.53;;;12.67;100.00
3590;BME280;1809;48.470;9.226;2022-09-24T06:36:01;96447.66;;;12.66;100.00
3590;BME280;1809;48.470;9.226;2022-09-24T06:38:27;96451.28;;;12.70;100.00
3590;BME280;1809;48.470;9.226;2022-09-24T06:40:57;96454.63;;;12.76;100.00
3590;BME280;1809;48.470;9.226;2022-09-24T06:43:23;96452.56;;;12.81;100.00
3590;BME280;1809;48.470;9.226;2022-09-24T06:45:48;96454.28;;;12.86;100.00
3590;BME280;1809;48.470;9.226;2022-09-24T06:48:14;96459.19;;;12.92;100.00
3590;BME280;1809;48.470;9.226;2022-09-24T06:50:41;96456.22;;;12.94;100.00
3590;BME280;1809;48.470;9.226;2022-09-24T06:53:08;96460.47;;;13.04;100.00
3590;BME280;1809;48.470;9.226;2022-09-24T06:55:35;96462.03;;;13.05;100.00
3590;BME280;1809;48.470;9.226;2022-09-24T06:58:03;96467.41;;;13.05;100.00
3590;BME280;1809;48.470;9.226;2022-09-24T07:00:29;96472.16;;;13.08;100.00
3590;BME280;1809;48.470;9.226;2022-09-24T07:02:54;96462.72;;;13.10;100.00
3590;BME280;1809;48.470;9.226;2022-09-24T07:05:20;96463.81;;;13.18;100.00
3590;BME280;1809;48.470;9.226;2022-09-24T07:07:45;96465.06;;;13.20;100.00
3590;BME280;1809;48.470;9.226;2022-09-24T07:10:11;96460.19;;;13.31;100.00
3590;BME280;1809;48.470;9.226;2022-09-24T07:12:40;96464.44;;;13.40;100.00
3590;BME280;1809;48.470;9.226;2022-09-24T07:15:06;96468.72;;;13.50;100.00
3590;BME280;1809;48.470;9.226;2022-09-24T07:17:31;96464.13;;;13.51;100.00
3590;BME280;1809;48.470;9.226;2022-09-24T07:19:57;96465.84;;;13.55;100.00
3590;BME280;1809;48.470;9.226;2022-09-24T07:22:22;96459.69;;;13.63;100.00
3590;BME280;1809;48.470;9.226;2022-09-24T07:24:47;96465.84;;;13.72;100.00
3590;BME280;1809;48.470;9.226;2022-09-24T07:27:13;96473.06;;;13.80;100.00
3590;BME280;1809;48.470;9.226;2022-09-24T07:29:39;96470.22;;;13.85;100.00
3590;BME280;1809;48.470;9.226;2022-09-24T07:32:05;96479.81;;;14.04;100.00
3590;BME280;1809;48.470;9.226;2022-09-24T07:34:30;96485.66;;;14.06;100.00
3590;BME280;1809;48.470;9.226;2022-09-24T07:36:56;96478.34;;;14.15;100.00
3590;BME280;1809;48.470;9.226;2022-09-24T07:39:23;96488.91;;;14.20;100.00
3590;BME280;1809;48.470;9.226;2022-09-24T07:41:48;96487.81;;;14.21;100.00
3590;BME280;1809;48.470;9.226;2022-09-24T07:44:19;96485.28;;;14.33;100.00
3590;BME280;1809;48.470;9.226;2022-09-24T07:46:49;96487.47;;;14.31;100.00
3590;BME280;1809;48.470;9.226;2022-09-24T07:49:14;96492.25;;;14.17;100.00
3590;BME280;1809;48.470;9.226;2022-09-24T07:51:40;96500.34;;;14.08;100.00
3590;BME280;1809;48.470;9.226;2022-09-24T07:54:05;96491.69;;;14.02;100.00
3590;BME280;1809;48.470;9.226;2022-09-24T07:56:31;96499.78;;;13.94;100.00
3590;BME280;1809;48.470;9.226;2022-09-24T07:58:56;96493.31;;;13.86;100.00
3590;BME280;1809;48.470;9.226;2022-09-24T08:01:22;96499.94;;;13.80;100.00
3590;BME280;1809;48.470;9.226;2022-09-24T08:03:50;96502.19;;;13.78;100.00
3590;BME280;1809;48.470;9.226;2022-09-24T08:06:16;96509.75;;;13.76;100.00
3590;BME280;1809;48.470;9.226;2022-09-24T08:08:41;96505.00;;;13.73;100.00
3590;BME280;1809;48.470;9.226;2022-09-24T08:11:09;96509.31;;;13.66;100.00
3590;BME280;1809;48.470;9.226;2022-09-24T08:13:36;96507.41;;;13.58;100.00
3590;BME280;1809;48.470;9.226;2022-09-24T08:16:02;96508.84;;;13.55;100.00
3590;BME280;1809;48.470;9.226;2022-09-24T08:18:30;96508.53;;;13.31;100.00
3590;BME280;1809;48.470;9.226;2022-09-24T08:21:02;96507.72;;;13.30;100.00
3590;BME280;1809;48.470;9.226;2022-09-24T08:23:28;96512.66;;;13.28;100.00
3590;BME280;1809;48.470;9.226;2022-09-24T08:25:54;96518.94;;;13.24;100.00
3590;BME280;1809;48.470;9.226;2022-09-24T08:28:19;96513.91;;;13.31;100.00
3590;BME280;1809;48.470;9.226;2022-09-24T08:30:45;96510.75;;;13.29;100.00
3590;BME280;1809;48.470;9.226;2022-09-24T08:33:11;96510.25;;;13.27;100.00
3590;BME280;1809;48.470;9.226;2022-09-24T08:35:37;96507.56;;;13.27;100.00
3590;BME280;1809;48.470;9.226;2022-09-24T08:38:04;96505.34;;;13.20;100.00
3590;BME280;1809;48.470;9.226;2022-09-24T08:40:35;96504.25;;;13.21;100.00
3590;BME280;1809;48.470;9.226;2022-09-24T08:43:18;96510.25;;;13.27;100.00
3590;BME280;1809;48.470;9.226;2022-09-24T08:45:52;96511.22;;;13.31;100.00
3590;BME280;1809;48.470;9.226;2022-09-24T08:48:39;96510.13;;;13.32;100.00
3590;BME280;1809;48.470;9.226;2022-09-24T08:51:11;96506.47;;;13.36;100.00
3590;BME280;1809;48.470;9.226;2022-09-24T08:53:53;96509.78;;;13.42;100.00
3590;BME280;1809;48.470;9.226;2022-09-24T08:56:32;96494.63;;;13.46;100.00
3590;BME280;1809;48.470;9.226;2022-09-24T08:59:00;96503.31;;;13.52;100.00
3590;BME280;1809;48.470;9.226;2022-09-24T09:03:53;96510.09;;;13.66;100.00
3590;BME280;1809;48.470;9.226;2022-09-24T09:06:54;96507.25;;;13.71;100.00
3590;BME280;1809;48.470;9.226;2022-09-24T09:09:25;96514.81;;;13.86;100.00
3590;BME280;1809;48.470;9.226;2022-09-24T09:12:02;96516.84;;;13.89;100.00
3590;BME280;1809;48.470;9.226;2022-09-24T09:17:38;96498.97;;;13.93;100.00
3590;BME280;1809;48.470;9.226;2022-09-24T09:20:15;96503.91;;;13.91;100.00
3590;BME280;1809;48.470;9.226;2022-09-24T09:22:45;96514.72;;;14.21;100.00
3590;BME280;1809;48.470;9.226;2022-09-24T09:25:32;96517.25;;;14.26;100.00
3590;BME280;1809;48.470;9.226;2022-09-24T09:28:09;96518.81;;;14.27;100.00
3590;BME280;1809;48.470;9.226;2022-09-24T09:30:51;96519.34;;;14.12;100.00
3590;BME280;1809;48.470;9.226;2022-09-24T09:34:17;96520.09;;;14.21;100.00
3590;BME280;1809;48.470;9.226;2022-09-24T09:42:03;96519.78;;;14.14;100.00
3590;BME280;1809;48.470;9.226;2022-09-24T09:44:37;96518.69;;;14.15;100.00
3590;BME280;1809;48.470;9.226;2022-09-24T09:47:35;96514.75;;;14.12;100.00
3590;BME280;1809;48.470;9.226;2022-09-24T09:52:44;96512.56;;;14.06;100.00
3590;BME280;1809;48.470;9.226;2022-09-24T09:55:32;96519.16;;;14.17;100.00
3590;BME280;1809;48.470;9.226;2022-09-24T09:58:21;96515.06;;;14.11;100.00
3590;BME280;1809;48.470;9.226;2022-09-24T10:00:47;96505.09;;;14.11;100.00
3590;BME280;1809;48.470;9.226;2022-09-24T10:05:59;96505.19;;;14.32;100.00
3590;BME280;1809;48.470;9.226;2022-09-24T10:08:25;96501.41;;;14.33;100.00
3590;BME280;1809;48.470;9.226;2022-09-24T10:10:54;96505.09;;;14.58;100.00
3590;BME280;1809;48.470;9.226;2022-09-24T10:13:20;96502.19;;;14.71;100.00
3590;BME280;1809;48.470;9.226;2022-09-24T10:15:56;96499.56;;;14.63;100.00
3590;BME280;1809;48.470;9.226;2022-09-24T10:18:36;96499.44;;;14.80;100.00
3590;BME280;1809;48.470;9.226;2022-09-24T10:21:08;96498.94;;;14.86;100.00
3590;BME280;1809;48.470;9.226;2022-09-24T10:23:41;96494.88;;;15.01;100.00
3590;BME280;1809;48.470;9.226;2022-09-24T10:26:08;96502.72;;;15.15;100.00
3590;BME280;1809;48.470;9.226;2022-09-24T10:28:39;96501.72;;;15.40;100.00
3590;BME280;1809;48.470;9.226;2022-09-24T10:31:27;96488.53;;;15.47;100.00
3590;BME280;1809;48.470;9.226;2022-09-24T10:33:56;96488.03;;;15.45;100.00
3590;BME280;1809;48.470;9.226;2022-09-24T10:36:25;96486.00;;;15.50;100.00
3590;BME280;1809;48.470;9.226;2022-09-24T10:39:20;96483.97;;;15.92;100.00
3590;BME280;1809;48.470;9.226;2022-09-24T10:41:48;96486.38;;;16.06;100.00
3590;BME280;1809;48.470;9.226;2022-09-24T10:44:15;96482.66;;;15.98;100.00
3590;BME280;1809;48.470;9.226;2022-09-24T10:58:26;96480.50;;;16.61;100.00
3590;BME280;1809;48.470;9.226;2022-09-24T11:01:07;96486.44;;;16.91;100.00
3590;BME280;1809;48.470;9.226;2022-09-24T11:03:51;96486.13;;;16.92;100.00
3590;BME280;1809;48.470;9.226;2022-09-24T11:14:49;96493.50;;;16.35;100.00
3590;BME280;1809;48.470;9.226;2022-09-24T11:17:29;96492.16;;;16.41;100.00
3590;BME280;1809;48.470;9.226;2022-09-24T11:22:51;96483.34;;;16.07;100.00
3590;BME280;1809;48.470;9.226;2022-09-24T11:25:49;96493.06;;;16.33;100.00
3590;BME280;1809;48.470;9.226;2022-09-24T11:28:37;96482.75;;;16.71;100.00
3590;BME280;1809;48.470;9.226;2022-09-24T11:31:28;96494.66;;;16.94;100.00
3590;BME280;1809;48.470;9.226;2022-09-24T11:34:05;96485.00;;;16.81;100.00
3590;BME280;1809;48.470;9.226;2022-09-24T11:39:37;96484.00;;;16.61;100.00
3590;BME280;1809;48.470;9.226;2022-09-24T11:42:20;96473.94;;;16.98;100.00
3590;BME280;1809;48.470;9.226;2022-09-24T11:50:13;96478.00;;;16.92;100.00
3590;BME280;1809;48.470;9.226;2022-09-24T11:52:47;96472.63;;;16.80;100.00
3590;BME280;1809;48.470;9.226;2022-09-24T11:58:39;96468.56;;;16.50;100.00
3590;BME280;1809;48.470;9.226;2022-09-24T12:06:25;96455.09;;;16.62;100.00
3590;BME280;1809;48.470;9.226;2022-09-24T12:09:01;96460.13;;;16.76;100.00
3590;BME280;1809;48.470;9.226;2022-09-24T12:11:33;96452.25;;;16.71;100.00
3590;BME280;1809;48.470;9.226;2022-09-24T12:14:06;96448.06;;;16.85;100.00
3590;BME280;1809;48.470;9.226;2022-09-24T12:16:38;96445.25;;;16.94;100.00
3590;BME280;1809;48.470;9.226;2022-09-24T12:19:20;96443.56;;;16.89;100.00
3590;BME280;1809;48.470;9.226;2022-09-24T12:21:49;96441.75;;;17.05;100.00
3590;BME280;1809;48.470;9.226;2022-09-24T12:27:34;96438.16;;;16.89;100.00
3590;BME280;1809;48.470;9.226;2022-09-24T12:30:32;96435.44;;;17.01;100.00
3590;BME280;1809;48.470;9.226;2022-09-24T12:33:40;96430.31;;;17.24;100.00
3590;BME280;1809;48.470;9.226;2022-09-24T12:38:42;96432.78;;;16.89;100.00
3590;BME280;1809;48.470;9.226;2022-09-24T12:41:23;96430.78;;;16.74;100.00
3590;BME280;1809;48.470;9.226;2022-09-24T12:43:55;96435.03;;;16.87;100.00
3590;BME280;1809;48.470;9.226;2022-09-24T12:46:34;96426.50;;;16.37;100.00
3590;BME280;1809;48.470;9.226;2022-09-24T12:49:02;96421.34;;;16.44;100.00
3590;BME280;1809;48.470;9.226;2022-09-24T12:51:34;96429.31;;;16.40;100.00
3590;BME280;1809;48.470;9.226;2022-09-24T12:54:27;96425.81;;;16.16;100.00
3590;BME280;1809;48.470;9.226;2022-09-24T12:57:14;96421.97;;;16.04;100.00
3590;BME280;1809;48.470;9.226;2022-09-24T13:02:21;96426.81;;;15.66;100.00
3590;BME280;1809;48.470;9.226;2022-09-24T13:07:36;96424.56;;;15.56;100.00
3590;BME280;1809;48.470;9.226;2022-09-24T13:10:21;96422.84;;;15.51;100.00
3590;BME280;1809;48.470;9.226;2022-09-24T13:12:48;96417.88;;;15.21;100.00
3590;BME280;1809;48.470;9.226;2022-09-24T13:15:30;96424.81;;;15.10;100.00
3590;BME280;1809;48.470;9.226;2022-09-24T13:18:22;96421.19;;;15.05;100.00
3590;BME280;1809;48.470;9.226;2022-09-24T13:21:01;96430.75;;;14.94;100.00
3590;BME280;1809;48.470;9.226;2022-09-24T13:23:30;96436.63;;;14.96;100.00
3590;BME280;1809;48.470;9.226;2022-09-24T13:26:07;96439.63;;;14.95;100.00
3590;BME280;1809;48.470;9.226;2022-09-24T13:28:56;96435.25;;;14.90;100.00
3590;BME280;1809;48.470;9.226;2022-09-24T13:31:43;96442.03;;;14.67;100.00
3590;BME280;1809;48.470;9.226;2022-09-24T13:34:20;96438.03;;;14.52;100.00
3590;BME280;1809;48.470;9.226;2022-09-24T13:37:14;96448.00;;;14.52;100.00
3590;BME280;1809;48.470;9.226;2022-09-24T13:39:57;96445.88;;;14.20;100.00
3590;BME280;1809;48.470;9.226;2022-09-24T13:42:33;96450.34;;;14.16;100.00
3590;BME280;1809;48.470;9.226;2022-09-24T13:45:21;96445.44;;;14.18;100.00
3590;BME280;1809;48.470;9.226;2022-09-24T13:47:50;96448.56;;;14.20;100.00
3590;BME280;1809;48.470;9.226;2022-09-24T13:50:38;96445.72;;;14.33;100.00
3590;BME280;1809;48.470;9.226;2022-09-24T13:53:31;96452.81;;;14.38;100.00
3590;BME280;1809;48.470;9.226;2022-09-24T13:55:59;96443.06;;;14.54;100.00
3590;BME280;1809;48.470;9.226;2022-09-24T13:58:37;96447.78;;;14.57;100.00
3590;BME280;1809;48.470;9.226;2022-09-24T14:03:32;96450.19;;;14.79;100.00
3590;BME280;1809;48.470;9.226;2022-09-24T14:05:59;96439.69;;;14.86;100.00
3590;BME280;1809;48.470;9.226;2022-09-24T14:08:26;96441.59;;;14.86;100.00
3590;BME280;1809;48.470;9.226;2022-09-24T14:11:04;96445.09;;;14.86;100.00
3590;BME280;1809;48.470;9.226;2022-09-24T14:13:34;96440.88;;;14.77;100.00
3590;BME280;1809;48.470;9.226;2022-09-24T14:16:11;96440.59;;;14.70;100.00
3590;BME280;1809;48.470;9.226;2022-09-24T14:18:38;96436.63;;;14.46;100.00
3590;BME280;1809;48.470;9.226;2022-09-24T14:21:26;96436.03;;;14.32;100.00
3590;BME280;1809;48.470;9.226;2022-09-24T14:23:57;96430.41;;;14.17;100.00
3590;BME280;1809;48.470;9.226;2022-09-24T14:26:35;96433.75;;;14.14;100.00
3590;BME280;1809;48.470;9.226;2022-09-24T14:29:06;96423.63;;;14.11;100.00
3590;BME280;1809;48.470;9.226;2022-09-24T14:32:01;96425.72;;;14.05;100.00
3590;BME280;1809;48.470;9.226;2022-09-24T14:34:34;96422.06;;;14.10;100.00
3590;BME280;1809;48.470;9.226;2022-09-24T14:37:20;96420.47;;;14.09;100.00
3590;BME280;1809;48.470;9.226;2022-09-24T14:39:48;96416.94;;;14.17;100.00
3590;BME280;1809;48.470;9.226;2022-09-24T14:42:39;96413.16;;;14.18;100.00
3590;BME280;1809;48.470;9.226;2022-09-24T14:45:07;96414.81;;;14.39;100.00
3590;BME280;1809;48.470;9.226;2022-09-24T14:47:35;96412.34;;;14.55;100.00
3590;BME280;1809;48.470;9.226;2022-09-24T14:50:01;96417.63;;;14.72;100.00
3590;BME280;1809;48.470;9.226;2022-09-24T14:52:33;96418.94;;;14.66;100.00
3590;BME280;1809;48.470;9.226;2022-09-24T14:55:14;96412.50;;;14.79;100.00
3590;BME280;1809;48.470;9.226;2022-09-24T14:57:41;96410.28;;;14.81;100.00
3590;BME280;1809;48.470;9.226;2022-09-24T15:00:21;96411.66;;;14.87;100.00